MET'MAP v2.0
soon released !

Expected late october,
this new version will be
more efficient, smarter,
and hosted on a brand new
server x3 powerfull...
...and still free !


Not compatible ?
Try the mobile version !

LOG IN : | Subscribe | Disclaimer | Who is Orbifly ? |
ICAO code :

TAF - LOIH Hohenems-Dornbirn Airport - 07 Apr 2020 00:30 UTC
Data Sources :     NOAA   


- Airport Elevation : 1352 ft
- IATA code : HOH
- No reported NOTAMs.


LOIH - Hohenems-Dornbirn Airport

Latest METAR recorded : 2015/08/11 08:00 LOIH 110800Z 00000KT 20KM FEW005ST SCT015SC OVC035SC 21/16 Q1016 RMK OVC
Expired Forecast.

Source NOAA


MET'MAP, your aeronautical weather chart ! - Copyright ORBIFLY December 2007

Programming & Development : Alexandra Zaïnal
Co-Developer : Marc-Olivier Méhu
Technical & hardware support : Manuel Goepfert
Concept & Financing : Baudouin d'Aumeries